Time;durP1;ratioP1;P1;durP2;ratioP2;P2;SDS_P1;SDS_P2;PMS_P1;PMS_P2;Temp;Humidity;BMP_temperature;BMP_pressure;BME280_temperature;BME280_humidity;BME280_pressure;Samples;Min_cycle;Max_cycle;Signal;HPM_P1;HPM_P2
2021/06/05 00:01:45;;;;;;;7.38;2.67;;;23.00;73.20;;;;;;5053505;28;20031;-60
2021/06/05 00:04:11;;;;;;;7.32;3.33;;;22.90;73.20;;;;;;5038986;28;20377;-59
2021/06/05 00:06:37;;;;;;;8.57;3.08;;;22.90;73.20;;;;;;5012292;28;20061;-59
2021/06/05 00:09:04;;;;;;;6.20;3.67;;;22.90;73.30;;;;;;5036923;28;20025;-59
2021/06/05 00:11:30;;;;;;;10.27;4.15;;;22.90;73.40;;;;;;5026384;28;20072;-60
2021/06/05 00:13:58;;;;;;;6.47;3.67;;;22.90;73.50;;;;;;5049202;28;20021;-60
2021/06/05 00:16:25;;;;;;;6.97;3.58;;;22.80;73.40;;;;;;5026229;28;20499;-60
2021/06/05 00:18:51;;;;;;;9.23;4.22;;;22.80;73.50;;;;;;5036819;28;20472;-60
2021/06/05 00:21:17;;;;;;;4.20;3.63;;;22.80;73.60;;;;;;5027978;28;20032;-60
2021/06/05 00:23:43;;;;;;;4.05;3.40;;;22.80;73.80;;;;;;5044507;28;20369;-60
2021/06/05 00:26:08;;;;;;;6.53;3.80;;;22.80;73.90;;;;;;5028671;28;20036;-60
2021/06/05 00:28:34;;;;;;;8.45;3.75;;;22.80;74.00;;;;;;5048512;28;20025;-61
2021/06/05 00:30:59;;;;;;;8.65;4.15;;;22.70;74.10;;;;;;5032955;28;20516;-60
2021/06/05 00:33:25;;;;;;;7.78;4.40;;;22.70;74.20;;;;;;5046111;28;20044;-60
2021/06/05 00:35:51;;;;;;;8.35;4.25;;;22.70;74.40;;;;;;5041115;28;20135;-60
2021/06/05 00:38:16;;;;;;;7.25;5.13;;;22.70;74.50;;;;;;5053460;28;20040;-60
2021/06/05 00:40:44;;;;;;;8.60;4.75;;;22.70;74.50;;;;;;5039894;28;20400;-60
2021/06/05 00:43:11;;;;;;;10.15;5.35;;;22.50;74.50;;;;;;5037339;28;20021;-60
2021/06/05 00:45:39;;;;;;;9.52;5.07;;;22.60;74.60;;;;;;5025508;28;20026;-60
2021/06/05 00:48:05;;;;;;;5.78;4.47;;;22.60;74.70;;;;;;5034593;28;20028;-60
2021/06/05 00:50:30;;;;;;;8.45;5.00;;;22.60;74.80;;;;;;5059661;28;20041;-59
2021/06/05 00:52:56;;;;;;;5.90;4.53;;;22.60;74.90;;;;;;5048834;28;20041;-60
2021/06/05 00:55:22;;;;;;;6.28;4.57;;;22.60;74.90;;;;;;5006270;28;20496;-60
2021/06/05 00:57:48;;;;;;;5.53;4.95;;;22.60;75.10;;;;;;5042432;28;20083;-60
2021/06/05 01:00:37;;;;;;;6.55;5.10;;;22.60;75.10;;;;;;5056932;28;20054;-60
2021/06/05 01:03:04;;;;;;;6.07;4.90;;;22.60;75.30;;;;;;5018378;28;20523;-60
2021/06/05 01:05:30;;;;;;;7.15;5.13;;;22.50;75.40;;;;;;5042536;28;20033;-60
2021/06/05 01:08:02;;;;;;;6.97;5.20;;;22.50;75.80;;;;;;5010957;28;20028;-60
2021/06/05 01:10:28;;;;;;;5.70;4.97;;;22.50;75.50;;;;;;5049172;28;20055;-61
2021/06/05 01:13:03;;;;;;;7.85;4.95;;;22.50;75.70;;;;;;5031738;28;20025;-60
2021/06/05 01:15:52;;;;;;;9.05;4.93;;;22.50;75.70;;;;;;5038075;28;20033;-59
2021/06/05 01:18:34;;;;;;;8.32;4.85;;;22.50;75.70;;;;;;5034642;28;20123;-60
2021/06/05 01:21:32;;;;;;;8.80;4.70;;;22.50;75.90;;;;;;5035876;28;20210;-60
2021/06/05 01:24:27;;;;;;;5.53;4.03;;;22.40;75.90;;;;;;5035529;28;20050;-61
2021/06/05 01:27:08;;;;;;;5.95;4.07;;;22.40;76.00;;;;;;5050975;28;20036;-60
2021/06/05 01:29:36;;;;;;;4.68;3.83;;;22.40;76.10;;;;;;5042156;28;20025;-60
2021/06/05 01:32:05;;;;;;;7.43;4.07;;;22.40;76.20;;;;;;5019474;28;20506;-60
2021/06/05 01:34:32;;;;;;;6.45;4.00;;;22.40;76.20;;;;;;5032016;28;20427;-60
2021/06/05 01:36:57;;;;;;;4.57;3.90;;;22.40;76.20;;;;;;5028070;28;20134;-60
2021/06/05 01:39:31;;;;;;;5.90;3.53;;;22.30;76.30;;;;;;5028306;28;20084;-60
2021/06/05 01:41:58;;;;;;;6.15;4.03;;;22.30;76.30;;;;;;5030961;28;20036;-60
2021/06/05 01:44:24;;;;;;;8.55;3.58;;;22.30;76.30;;;;;;5033694;28;20065;-60
2021/06/05 01:46:50;;;;;;;5.15;3.58;;;22.30;76.50;;;;;;5037137;28;20028;-60
2021/06/05 01:49:16;;;;;;;6.15;4.10;;;22.20;77.20;;;;;;5023916;28;20025;-60
2021/06/05 01:51:46;;;;;;;6.50;5.22;;;22.30;76.60;;;;;;5020288;28;20164;-60
2021/06/05 01:54:28;;;;;;;7.63;4.45;;;22.20;76.60;;;;;;5034012;28;20389;-60
2021/06/05 01:56:59;;;;;;;4.70;3.88;;;22.20;76.70;;;;;;5019814;28;20029;-60
2021/06/05 01:59:25;;;;;;;5.38;4.88;;;22.20;76.80;;;;;;5026051;28;20104;-60
2021/06/05 02:01:51;;;;;;;6.80;4.60;;;22.20;76.80;;;;;;5026607;28;20454;-60
2021/06/05 02:04:16;;;;;;;6.68;4.43;;;22.20;76.90;;;;;;5048779;28;20071;-60
2021/06/05 02:06:45;;;;;;;7.57;5.32;;;22.20;77.00;;;;;;5017840;28;20033;-60
2021/06/05 02:09:11;;;;;;;6.25;4.28;;;22.10;77.00;;;;;;5028886;28;20041;-60
2021/06/05 02:11:41;;;;;;;5.00;3.97;;;22.10;77.10;;;;;;5022207;28;20382;-60
2021/06/05 02:14:09;;;;;;;6.28;4.15;;;22.10;77.20;;;;;;5017014;28;20543;-60
2021/06/05 02:16:36;;;;;;;5.43;4.05;;;22.10;77.20;;;;;;5029083;28;20025;-60
2021/06/05 02:19:11;;;;;;;5.30;3.38;;;22.10;77.20;;;;;;5042225;28;20029;-60
2021/06/05 02:21:37;;;;;;;6.85;3.88;;;22.10;77.30;;;;;;5030125;28;20091;-59
2021/06/05 02:24:08;;;;;;;8.90;3.92;;;22.00;77.30;;;;;;5019378;28;20496;-60
2021/06/05 02:26:35;;;;;;;5.30;3.75;;;22.00;77.40;;;;;;5035589;28;20052;-60
2021/06/05 02:29:01;;;;;;;4.63;3.60;;;22.00;77.50;;;;;;5018537;28;20193;-60
2021/06/05 02:31:26;;;;;;;5.05;3.60;;;22.00;77.50;;;;;;5033179;28;20020;-60
2021/06/05 02:33:52;;;;;;;5.80;3.35;;;22.00;77.50;;;;;;5021128;28;20067;-60
2021/06/05 02:36:18;;;;;;;4.82;3.30;;;22.00;77.70;;;;;;5002420;28;20095;-59
2021/06/05 02:38:46;;;;;;;4.07;3.10;;;22.00;77.80;;;;;;5019093;28;20128;-60
2021/06/05 02:41:12;;;;;;;3.50;3.20;;;22.00;77.80;;;;;;5035752;28;20044;-60
2021/06/05 02:43:38;;;;;;;4.82;3.00;;;22.00;77.80;;;;;;5018199;28;20063;-60
2021/06/05 02:46:24;;;;;;;5.57;2.88;;;22.00;78.00;;;;;;5016884;28;20088;-60
2021/06/05 02:48:52;;;;;;;5.28;4.30;;;22.00;78.00;;;;;;5048416;28;20028;-59
2021/06/05 02:51:21;;;;;;;6.95;5.10;;;21.90;78.10;;;;;;5033044;28;20027;-60
2021/06/05 02:53:46;;;;;;;6.18;4.70;;;21.90;78.10;;;;;;5037168;28;20556;-60
2021/06/05 02:56:12;;;;;;;7.30;3.90;;;21.90;78.10;;;;;;5046334;28;20108;-60
2021/06/05 02:58:38;;;;;;;4.68;3.75;;;21.80;78.10;;;;;;5034140;28;20115;-60
2021/06/05 03:01:05;;;;;;;6.35;3.63;;;21.80;78.20;;;;;;5049980;28;20424;-59
2021/06/05 03:03:31;;;;;;;4.45;3.90;;;22.00;78.40;;;;;;5043610;28;20033;-59
2021/06/05 03:05:56;;;;;;;5.45;3.38;;;21.80;78.30;;;;;;5053047;28;20048;-60
2021/06/05 03:08:27;;;;;;;6.60;3.67;;;21.80;78.30;;;;;;5050151;28;20036;-60
2021/06/05 03:10:53;;;;;;;4.72;3.50;;;21.80;78.30;;;;;;5055820;28;20112;-60
2021/06/05 03:13:19;;;;;;;7.63;3.85;;;21.80;78.40;;;;;;5013361;28;20925;-59
2021/06/05 03:15:45;;;;;;;5.43;4.07;;;21.80;78.40;;;;;;5030779;28;20025;-60
2021/06/05 03:18:12;;;;;;;5.68;4.60;;;21.80;78.50;;;;;;5050739;28;20469;-60
2021/06/05 03:20:39;;;;;;;5.13;3.90;;;21.80;78.60;;;;;;5037988;28;20070;-60
2021/06/05 03:23:05;;;;;;;5.82;3.95;;;21.70;78.50;;;;;;5039938;28;20637;-60
2021/06/05 03:25:30;;;;;;;6.90;3.90;;;21.70;78.50;;;;;;5037765;28;20024;-60
2021/06/05 03:27:58;;;;;;;4.10;3.53;;;21.70;78.50;;;;;;5046219;28;20021;-60
2021/06/05 03:30:24;;;;;;;7.30;3.95;;;21.70;78.60;;;;;;5051323;28;20075;-59
2021/06/05 03:32:50;;;;;;;5.05;3.67;;;21.60;78.60;;;;;;5048195;28;20032;-60
2021/06/05 03:35:15;;;;;;;3.78;3.38;;;21.60;78.60;;;;;;5043364;28;20635;-60
2021/06/05 03:37:41;;;;;;;4.65;3.60;;;21.60;78.70;;;;;;5040693;28;20034;-59
2021/06/05 03:40:08;;;;;;;5.63;3.53;;;21.60;78.70;;;;;;5025390;28;20037;-60
2021/06/05 03:42:33;;;;;;;3.88;3.25;;;21.60;78.60;;;;;;5030767;28;20616;-59
2021/06/05 03:44:59;;;;;;;5.00;3.40;;;21.60;78.70;;;;;;5047806;28;21544;-59
2021/06/05 03:47:24;;;;;;;4.85;3.70;;;21.60;78.70;;;;;;5048552;28;20025;-60
2021/06/05 03:49:52;;;;;;;3.70;3.22;;;21.60;78.70;;;;;;5053572;28;20464;-60
2021/06/05 03:52:22;;;;;;;4.50;3.38;;;21.60;78.70;;;;;;5037682;28;20048;-59
2021/06/05 03:54:51;;;;;;;4.20;3.15;;;21.60;78.70;;;;;;5043128;28;20040;-58
2021/06/05 03:57:17;;;;;;;3.67;3.28;;;21.50;78.80;;;;;;5033444;28;20033;-60
2021/06/05 03:59:43;;;;;;;4.80;3.10;;;21.50;78.90;;;;;;5031403;28;20179;-60
2021/06/05 04:02:08;;;;;;;8.18;3.42;;;21.50;78.90;;;;;;5049507;28;20880;-60
2021/06/05 04:04:34;;;;;;;32.88;6.70;;;21.50;79.00;;;;;;5045102;28;20033;-60
2021/06/05 04:06:59;;;;;;;33.90;7.28;;;21.60;79.10;;;;;;5041225;28;20397;-60
2021/06/05 04:09:25;;;;;;;54.15;8.60;;;21.50;79.40;;;;;;5031795;28;20030;-60
2021/06/05 04:11:50;;;;;;;37.15;7.25;;;21.50;79.20;;;;;;5040548;28;20017;-60
2021/06/05 04:14:16;;;;;;;43.72;7.20;;;21.50;79.20;;;;;;5038710;28;20477;-60
2021/06/05 04:16:42;;;;;;;45.88;7.60;;;21.50;79.20;;;;;;5011403;28;20033;-60
2021/06/05 04:19:07;;;;;;;117.70;11.00;;;21.50;79.30;;;;;;5042142;28;20033;-60
2021/06/05 04:21:33;;;;;;;126.90;10.80;;;21.50;79.30;;;;;;5037512;28;20049;-60
2021/06/05 04:23:58;;;;;;;194.23;13.70;;;21.50;79.30;;;;;;5037956;28;20044;-60
2021/06/05 04:26:24;;;;;;;238.02;18.10;;;21.40;79.30;;;;;;5031565;28;20020;-60
2021/06/05 04:28:49;;;;;;;310.77;23.73;;;21.40;79.40;;;;;;5011353;28;20567;-60
2021/06/05 04:31:15;;;;;;;405.83;31.20;;;21.40;79.60;;;;;;5024889;28;20030;-59
2021/06/05 04:33:40;;;;;;;289.65;21.95;;;21.40;79.70;;;;;;5029626;28;20029;-60
2021/06/05 04:36:08;;;;;;;228.77;17.67;;;21.40;79.50;;;;;;5031120;28;20032;-60
2021/06/05 04:38:35;;;;;;;208.55;15.57;;;21.40;79.40;;;;;;5011582;28;20120;-60
2021/06/05 04:41:01;;;;;;;233.45;19.48;;;21.40;79.40;;;;;;5028122;28;20041;-60
2021/06/05 04:43:26;;;;;;;235.10;21.23;;;21.30;79.30;;;;;;5031165;28;20030;-60
2021/06/05 04:45:52;;;;;;;229.70;20.20;;;21.30;79.30;;;;;;5023051;28;20033;-60
2021/06/05 04:48:17;;;;;;;211.95;18.58;;;21.30;79.30;;;;;;5009203;28;20045;-60
2021/06/05 04:50:43;;;;;;;239.40;19.67;;;21.30;79.20;;;;;;5019707;28;20037;-60
2021/06/05 04:53:09;;;;;;;227.48;20.65;;;21.30;79.30;;;;;;5011468;28;20018;-60
2021/06/05 04:55:35;;;;;;;230.35;17.88;;;21.30;79.30;;;;;;5021367;28;20048;-60
2021/06/05 04:58:00;;;;;;;207.75;17.58;;;21.30;79.20;;;;;;5011057;28;20416;-60
2021/06/05 05:00:32;;;;;;;188.10;18.38;;;21.30;79.30;;;;;;5019675;28;20033;-60
2021/06/05 05:02:57;;;;;;;178.88;19.52;;;21.30;79.40;;;;;;5012240;28;20040;-61
2021/06/05 05:05:23;;;;;;;179.38;17.05;;;21.30;79.30;;;;;;5028479;28;20536;-60
2021/06/05 05:07:49;;;;;;;178.55;15.43;;;21.30;79.40;;;;;;5024599;28;20025;-60
2021/06/05 05:10:15;;;;;;;184.70;16.55;;;21.20;79.40;;;;;;5032289;28;20107;-60
2021/06/05 05:12:41;;;;;;;165.45;15.27;;;21.30;79.60;;;;;;5016958;28;20017;-60
2021/06/05 05:15:07;;;;;;;169.80;16.30;;;21.30;79.50;;;;;;4999894;28;20114;-60
2021/06/05 05:17:33;;;;;;;146.38;16.30;;;21.30;79.50;;;;;;5013046;28;20536;-60
2021/06/05 05:20:00;;;;;;;122.70;13.55;;;21.30;79.40;;;;;;5029160;28;20250;-60
2021/06/05 05:22:26;;;;;;;159.50;14.10;;;21.30;79.30;;;;;;5013857;28;20121;-60
2021/06/05 05:24:51;;;;;;;112.80;14.40;;;21.30;79.20;;;;;;5031665;28;20128;-60
2021/06/05 05:27:17;;;;;;;128.07;14.13;;;21.30;79.30;;;;;;4996737;28;20637;-60
2021/06/05 05:29:42;;;;;;;128.80;14.38;;;21.20;78.90;;;;;;5031426;28;20489;-60
2021/06/05 05:32:08;;;;;;;143.80;15.32;;;21.30;79.00;;;;;;5012766;28;20472;-60
2021/06/05 05:34:34;;;;;;;118.45;13.55;;;21.30;79.10;;;;;;5015128;28;20033;-60
2021/06/05 05:36:59;;;;;;;113.35;12.70;;;21.30;79.10;;;;;;5013884;28;20034;-60
2021/06/05 05:39:25;;;;;;;112.35;12.45;;;21.30;78.80;;;;;;5035027;28;20037;-60
2021/06/05 05:41:50;;;;;;;107.00;12.70;;;21.30;78.80;;;;;;5016532;28;20034;-60
2021/06/05 05:44:17;;;;;;;123.18;11.95;;;21.30;79.00;;;;;;5042630;28;20063;-60
2021/06/05 05:46:43;;;;;;;117.80;13.43;;;21.30;78.90;;;;;;5019845;28;20746;-59
2021/06/05 05:49:08;;;;;;;137.77;13.40;;;21.30;78.80;;;;;;5026532;28;20030;-60
2021/06/05 05:51:34;;;;;;;122.65;13.60;;;21.30;78.70;;;;;;4999414;28;20060;-60
2021/06/05 05:53:59;;;;;;;100.47;13.15;;;21.30;78.80;;;;;;5030948;28;20041;-60
2021/06/05 05:56:27;;;;;;;95.60;12.95;;;21.30;78.70;;;;;;4997797;28;20033;-60
2021/06/05 05:58:53;;;;;;;94.50;12.23;;;21.30;78.60;;;;;;5011700;28;20030;-60
2021/06/05 06:01:20;;;;;;;107.85;12.48;;;21.30;78.50;;;;;;5023508;28;20060;-60
2021/06/05 06:03:47;;;;;;;79.28;10.25;;;21.30;78.60;;;;;;5013367;28;20033;-60
2021/06/05 06:06:12;;;;;;;94.60;11.50;;;21.30;78.50;;;;;;5008769;28;20024;-60
2021/06/05 06:08:38;;;;;;;94.53;12.27;;;21.30;78.40;;;;;;5010094;28;20550;-60
2021/06/05 06:11:04;;;;;;;93.00;11.18;;;21.40;78.50;;;;;;5013634;28;20041;-60
2021/06/05 06:13:29;;;;;;;69.75;10.25;;;21.40;78.50;;;;;;5018622;28;20032;-60
2021/06/05 06:15:55;;;;;;;76.60;10.88;;;21.40;78.40;;;;;;5019856;28;20063;-60
2021/06/05 06:18:20;;;;;;;78.43;9.38;;;21.40;78.40;;;;;;5019540;28;20087;-60
2021/06/05 06:20:49;;;;;;;80.30;10.48;;;21.40;78.70;;;;;;5019394;28;20417;-60
2021/06/05 06:23:20;;;;;;;78.00;10.50;;;21.40;78.80;;;;;;5035573;28;20045;-60
2021/06/05 06:25:49;;;;;;;68.80;9.35;;;21.40;78.50;;;;;;5016826;28;20029;-60
2021/06/05 06:28:15;;;;;;;76.85;8.40;;;21.40;78.90;;;;;;5024789;28;20116;-60
2021/06/05 06:30:41;;;;;;;61.10;7.70;;;21.40;78.20;;;;;;5032030;28;20029;-60
2021/06/05 06:33:08;;;;;;;66.15;9.18;;;21.50;78.20;;;;;;5028350;28;20484;-59
2021/06/05 06:35:34;;;;;;;74.88;8.50;;;21.40;78.10;;;;;;5028506;28;20041;-59
2021/06/05 06:38:00;;;;;;;70.32;8.48;;;21.40;78.20;;;;;;5036538;28;20529;-59
2021/06/05 06:40:28;;;;;;;69.97;8.63;;;21.50;78.40;;;;;;5034013;28;20467;-60
2021/06/05 06:42:54;;;;;;;54.85;8.80;;;21.50;78.20;;;;;;5031447;28;20564;-60
2021/06/05 06:45:19;;;;;;;49.50;7.43;;;21.50;78.40;;;;;;5039921;28;20025;-60
2021/06/05 06:47:45;;;;;;;60.50;8.73;;;21.50;78.30;;;;;;5044453;28;20021;-60
2021/06/05 06:50:12;;;;;;;49.92;7.38;;;21.50;78.30;;;;;;5033032;28;20104;-60
2021/06/05 06:52:37;;;;;;;68.63;8.32;;;21.50;78.30;;;;;;5030406;28;20032;-60
2021/06/05 06:55:04;;;;;;;48.58;6.90;;;21.50;78.40;;;;;;5036440;28;20025;-60
2021/06/05 06:57:29;;;;;;;57.50;8.05;;;21.50;78.10;;;;;;5033504;28;20048;-60
2021/06/05 06:59:55;;;;;;;49.17;6.32;;;21.50;78.00;;;;;;5006290;28;20029;-60
2021/06/05 07:02:21;;;;;;;51.60;6.97;;;21.50;78.10;;;;;;5002549;28;20038;-60
2021/06/05 07:04:46;;;;;;;67.93;8.20;;;21.50;78.20;;;;;;5043644;28;20048;-61
2021/06/05 07:07:12;;;;;;;33.40;5.53;;;21.60;78.20;;;;;;5046636;28;20028;-60
2021/06/05 07:09:38;;;;;;;50.08;6.78;;;21.50;78.40;;;;;;5041659;28;20028;-60
2021/06/05 07:12:04;;;;;;;39.20;5.28;;;21.60;78.60;;;;;;5028968;28;20028;-60
2021/06/05 07:14:29;;;;;;;33.42;5.55;;;21.60;78.70;;;;;;5045539;28;20024;-60
2021/06/05 07:16:55;;;;;;;32.85;4.70;;;21.60;78.80;;;;;;5046769;28;20519;-59
2021/06/05 07:19:21;;;;;;;24.73;4.28;;;21.60;79.10;;;;;;5047965;28;20233;-61
2021/06/05 07:21:46;;;;;;;23.27;4.07;;;21.60;79.30;;;;;;5045736;28;20033;-60
2021/06/05 07:24:12;;;;;;;17.98;4.35;;;21.60;79.10;;;;;;5023576;28;20036;-60
2021/06/05 07:26:38;;;;;;;23.40;3.38;;;21.70;79.10;;;;;;5040204;28;20032;-61
2021/06/05 07:29:05;;;;;;;17.25;2.80;;;21.60;79.30;;;;;;5045004;28;20120;-60
2021/06/05 07:31:33;;;;;;;22.80;3.38;;;21.60;79.40;;;;;;5041721;28;20027;-60
2021/06/05 07:33:59;;;;;;;17.55;3.65;;;21.60;79.40;;;;;;5036655;28;20175;-60
2021/06/05 07:36:29;;;;;;;16.45;2.50;;;21.60;79.40;;;;;;5049080;28;20033;-61
2021/06/05 07:38:55;;;;;;;25.23;3.17;;;21.60;79.40;;;;;;5025130;28;20416;-60
2021/06/05 07:41:20;;;;;;;11.38;2.53;;;21.60;79.30;;;;;;5050398;28;20032;-61
2021/06/05 07:43:46;;;;;;;12.60;2.38;;;21.70;79.30;;;;;;5037183;28;20548;-59
2021/06/05 07:46:11;;;;;;;8.02;2.95;;;21.60;79.30;;;;;;5045979;28;20037;-61
2021/06/05 07:48:37;;;;;;;12.43;2.22;;;21.60;79.20;;;;;;5046973;28;20025;-60
2021/06/05 07:51:05;;;;;;;10.90;2.13;;;21.70;79.40;;;;;;5050922;28;20025;-61
2021/06/05 07:53:30;;;;;;;7.95;1.67;;;21.70;79.30;;;;;;5021889;28;20035;-61
2021/06/05 07:55:56;;;;;;;6.63;1.95;;;21.70;79.30;;;;;;5038022;28;20024;-60
2021/06/05 07:58:21;;;;;;;7.93;2.08;;;21.60;79.40;;;;;;5049255;28;20029;-59
2021/06/05 08:00:47;;;;;;;6.57;2.10;;;21.60;79.20;;;;;;5047029;28;20047;-59
2021/06/05 08:03:12;;;;;;;12.35;2.33;;;21.60;79.00;;;;;;5052565;28;20521;-60
2021/06/05 08:05:38;;;;;;;11.88;1.80;;;21.60;79.20;;;;;;5039550;28;20041;-60
2021/06/05 08:08:04;;;;;;;15.45;2.33;;;21.60;79.40;;;;;;5035508;28;20037;-60
2021/06/05 08:10:30;;;;;;;19.33;2.17;;;21.60;79.70;;;;;;5034740;28;20438;-59
2021/06/05 08:12:56;;;;;;;15.10;2.35;;;21.60;80.10;;;;;;5035748;28;20058;-60
2021/06/05 08:15:30;;;;;;;15.63;2.13;;;21.50;80.60;;;;;;5034615;28;20452;-61
2021/06/05 08:17:56;;;;;;;16.80;2.33;;;21.50;80.60;;;;;;5021337;28;20040;-61
2021/06/05 08:20:37;;;;;;;18.38;2.30;;;21.50;80.80;;;;;;5026200;28;20029;-60
2021/06/05 08:23:04;;;;;;;17.00;2.95;;;21.50;81.20;;;;;;5034615;28;20484;-60
2021/06/05 08:25:29;;;;;;;10.90;2.50;;;21.40;81.30;;;;;;5050040;28;20053;-59
2021/06/05 08:27:55;;;;;;;22.05;3.50;;;21.40;81.80;;;;;;5055972;28;20075;-60
2021/06/05 08:30:35;;;;;;;24.92;3.17;;;21.40;81.60;;;;;;5039170;28;20179;-60
2021/06/05 08:33:01;;;;;;;15.20;3.03;;;21.40;81.90;;;;;;5059927;28;20033;-60
2021/06/05 08:35:27;;;;;;;23.92;3.22;;;21.40;82.20;;;;;;5037762;28;20036;-60
2021/06/05 08:37:52;;;;;;;26.90;3.42;;;21.50;82.70;;;;;;5059095;28;20099;-60
2021/06/05 08:40:23;;;;;;;14.07;2.90;;;21.40;82.50;;;;;;5015767;28;20029;-60
2021/06/05 08:42:50;;;;;;;14.20;2.65;;;21.40;82.50;;;;;;5015078;28;20037;-60
2021/06/05 08:45:21;;;;;;;19.45;3.38;;;21.40;82.10;;;;;;5043943;28;20345;-59
2021/06/05 08:47:46;;;;;;;15.20;2.80;;;21.40;82.30;;;;;;5040540;28;20555;-60
2021/06/05 08:50:17;;;;;;;19.95;2.90;;;21.40;82.20;;;;;;5038408;28;20062;-59
2021/06/05 08:52:46;;;;;;;19.52;3.05;;;21.40;82.70;;;;;;5035057;28;20109;-60
2021/06/05 08:55:37;;;;;;;34.60;6.32;;;21.40;82.70;;;;;;5061244;28;20397;-59
2021/06/05 08:58:11;;;;;;;26.58;5.35;;;21.30;82.90;;;;;;5033976;28;20023;-59
2021/06/05 09:00:44;;;;;;;42.47;4.07;;;21.40;82.80;;;;;;5034507;28;20037;-60
2021/06/05 09:03:13;;;;;;;23.10;3.35;;;21.40;83.10;;;;;;5030477;28;20054;-60
2021/06/05 09:05:51;;;;;;;36.60;4.82;;;21.40;83.00;;;;;;5046600;28;20029;-59
2021/06/05 09:08:19;;;;;;;29.85;4.10;;;21.40;83.50;;;;;;5032637;28;20480;-60
2021/06/05 09:10:46;;;;;;;34.65;4.70;;;21.40;83.20;;;;;;5029405;28;20091;-58
2021/06/05 09:13:11;;;;;;;66.00;5.85;;;21.40;83.50;;;;;;5028128;28;20028;-60
2021/06/05 09:15:37;;;;;;;66.18;8.05;;;21.40;83.90;;;;;;5049626;28;20024;-59
2021/06/05 09:18:08;;;;;;;54.92;7.22;;;21.40;84.20;;;;;;5035593;28;20032;-59
2021/06/05 09:20:44;;;;;;;67.35;6.00;;;21.40;84.10;;;;;;5018356;28;20028;-59
2021/06/05 09:23:30;;;;;;;106.20;7.90;;;21.40;84.30;;;;;;5026499;28;20037;-59
2021/06/05 09:25:57;;;;;;;190.20;16.15;;;21.40;84.00;;;;;;5022503;28;20032;-59
2021/06/05 09:28:30;;;;;;;96.57;8.95;;;21.40;83.90;;;;;;5046972;28;20021;-59
2021/06/05 09:31:17;;;;;;;54.20;6.50;;;21.50;84.30;;;;;;5032037;28;20051;-62
2021/06/05 09:33:43;;;;;;;61.83;6.05;;;21.40;84.30;;;;;;5038106;28;20112;-60
2021/06/05 09:36:34;;;;;;;64.85;6.25;;;21.40;84.20;;;;;;5049130;28;20205;-59
2021/06/05 09:39:06;;;;;;;73.22;6.38;;;21.50;84.10;;;;;;5028068;28;20029;-59
2021/06/05 09:41:34;;;;;;;46.08;5.93;;;21.50;84.50;;;;;;5044567;28;20033;-60
2021/06/05 09:44:21;;;;;;;58.33;7.38;;;21.50;83.60;;;;;;5048571;28;20029;-61
2021/06/05 09:46:59;;;;;;;64.05;6.25;;;21.50;83.70;;;;;;5048315;28;20017;-59
2021/06/05 09:49:33;;;;;;;57.83;6.22;;;21.60;83.80;;;;;;5015884;28;20574;-59
2021/06/05 09:52:24;;;;;;;62.47;7.00;;;21.60;84.10;;;;;;5032443;28;20040;-62
2021/06/05 09:54:52;;;;;;;31.20;3.85;;;21.60;84.20;;;;;;5037254;28;20067;-60
2021/06/05 09:57:29;;;;;;;58.70;6.65;;;21.60;83.10;;;;;;5015253;28;20489;-60
2021/06/05 10:00:09;;;;;;;96.40;8.63;;;21.60;82.80;;;;;;5051689;28;20040;-61
2021/06/05 10:02:36;;;;;;;69.90;7.32;;;21.60;82.80;;;;;;5046343;28;20041;-62
2021/06/05 10:05:10;;;;;;;71.63;6.45;;;21.70;82.50;;;;;;5018129;28;20171;-61
2021/06/05 10:07:36;;;;;;;61.28;6.07;;;21.70;82.10;;;;;;5021781;28;20125;-61
2021/06/05 10:10:05;;;;;;;84.85;7.25;;;21.60;82.10;;;;;;5019871;28;20371;-62
2021/06/05 10:12:33;;;;;;;62.95;5.80;;;21.60;82.70;;;;;;5007462;28;20041;-61
2021/06/05 10:15:11;;;;;;;67.68;5.18;;;21.60;82.20;;;;;;5021632;28;20064;-62
2021/06/05 10:17:54;;;;;;;75.20;5.93;;;21.60;82.40;;;;;;5025685;28;20034;-60
2021/06/05 10:20:21;;;;;;;83.03;6.45;;;21.50;82.20;;;;;;5015510;28;20068;-61
2021/06/05 10:22:51;;;;;;;72.18;5.97;;;21.50;82.40;;;;;;5024640;28;20135;-60
2021/06/05 10:25:20;;;;;;;52.95;6.05;;;21.60;82.60;;;;;;5027773;28;20507;-60
2021/06/05 10:27:47;;;;;;;66.03;6.15;;;21.50;82.40;;;;;;5044497;28;20221;-61
2021/06/05 10:30:39;;;;;;;61.95;5.63;;;21.50;82.50;;;;;;5036131;28;20540;-60
2021/06/05 10:33:06;;;;;;;52.20;7.10;;;21.50;82.30;;;;;;5040397;28;20039;-62
2021/06/05 10:35:34;;;;;;;69.63;6.85;;;21.50;82.50;;;;;;5040507;28;20025;-59
2021/06/05 10:38:17;;;;;;;78.93;7.47;;;21.50;82.30;;;;;;5021780;28;20025;-58
2021/06/05 10:40:42;;;;;;;57.20;6.25;;;21.50;83.10;;;;;;5031871;28;20040;-59
2021/06/05 10:43:14;;;;;;;57.33;6.47;;;21.50;83.10;;;;;;5017747;28;20364;-61
2021/06/05 10:45:40;;;;;;;51.20;5.63;;;21.50;82.50;;;;;;5026710;28;20029;-62
2021/06/05 10:48:22;;;;;;;57.15;4.88;;;21.50;82.20;;;;;;5036680;28;20372;-59
2021/06/05 10:50:51;;;;;;;51.67;4.82;;;21.50;82.30;;;;;;5028222;28;20029;-59
2021/06/05 10:53:30;;;;;;;84.05;8.32;;;21.50;82.30;;;;;;5028367;28;20029;-60
2021/06/05 10:56:16;;;;;;;70.45;5.78;;;21.40;82.00;;;;;;5010590;28;20086;-61
2021/06/05 10:58:46;;;;;;;;;;;21.50;82.20;;;;;;5029452;28;20035;-59
2021/06/05 11:01:37;;;;;;;66.22;6.10;;;21.40;81.80;;;;;;5014587;28;19909;-60
2021/06/05 11:04:07;;;;;;;40.95;4.13;;;21.40;81.70;;;;;;5033394;28;20049;-59
2021/06/05 11:07:01;;;;;;;44.17;5.50;;;21.40;81.50;;;;;;5032053;28;20500;-60
2021/06/05 11:09:29;;;;;;;55.42;5.75;;;21.40;81.30;;;;;;5040218;28;20061;-59
2021/06/05 11:11:59;;;;;;;58.45;5.47;;;21.40;81.20;;;;;;5039547;28;20027;-59
2021/06/05 11:14:36;;;;;;;37.10;4.50;;;21.40;81.00;;;;;;5022897;28;20044;-61
2021/06/05 11:17:10;;;;;;;47.88;4.57;;;21.40;80.80;;;;;;5043765;28;20388;-60
2021/06/05 11:19:42;;;;;;;45.78;4.40;;;21.40;80.50;;;;;;5038211;28;20036;-61
2021/06/05 11:22:12;;;;;;;60.85;5.72;;;21.40;80.20;;;;;;5035725;28;20037;-59
2021/06/05 11:24:38;;;;;;;57.22;5.05;;;21.40;80.00;;;;;;5003441;28;20615;-61
2021/06/05 11:27:08;;;;;;;78.43;6.85;;;21.40;79.60;;;;;;5006701;28;20061;-61
2021/06/05 11:29:37;;;;;;;53.88;5.07;;;21.30;79.50;;;;;;5025213;28;20024;-62
2021/06/05 11:32:34;;;;;;;49.63;4.85;;;21.30;79.20;;;;;;5019077;28;20423;-60
2021/06/05 11:35:00;;;;;;;67.20;6.10;;;21.30;79.30;;;;;;5005809;28;20136;-61
2021/06/05 11:37:43;;;;;;;42.17;5.00;;;21.30;79.10;;;;;;5021084;28;20029;-60
2021/06/05 11:40:09;;;;;;;27.33;4.35;;;21.20;78.90;;;;;;5001458;28;20109;-63
2021/06/05 11:42:35;;;;;;;26.92;2.92;;;21.20;78.50;;;;;;5015418;28;20532;-60
2021/06/05 11:45:00;;;;;;;28.80;2.65;;;21.20;78.30;;;;;;5019297;28;20030;-60
2021/06/05 11:47:27;;;;;;;23.98;3.20;;;21.20;78.30;;;;;;5019602;28;20558;-61
2021/06/05 11:50:07;;;;;;;27.55;3.20;;;21.20;78.10;;;;;;5018736;28;20021;-60
2021/06/05 11:52:37;;;;;;;37.60;3.15;;;21.20;78.30;;;;;;5030325;28;20036;-61
2021/06/05 11:55:06;;;;;;;29.70;3.83;;;21.20;78.20;;;;;;4999167;28;20037;-62
2021/06/05 11:57:34;;;;;;;26.70;2.83;;;21.10;78.10;;;;;;5027543;28;20116;-61
2021/06/05 12:00:37;;;;;;;22.25;2.00;;;21.10;78.10;;;;;;5001741;28;20044;-61
2021/06/05 12:03:06;;;;;;;27.63;2.78;;;21.10;77.90;;;;;;4962467;28;20410;-60
2021/06/05 12:05:37;;;;;;;31.48;3.30;;;21.10;78.00;;;;;;5019480;28;20052;-61
2021/06/05 12:08:20;;;;;;;44.00;3.05;;;21.00;78.00;;;;;;4991732;28;20135;-60
2021/06/05 12:10:46;;;;;;;30.48;3.22;;;21.00;77.80;;;;;;5004602;28;20021;-61
2021/06/05 12:13:22;;;;;;;20.63;2.95;;;21.00;77.80;;;;;;5001697;28;20037;-61
2021/06/05 12:15:48;;;;;;;32.17;3.25;;;21.00;77.50;;;;;;5018689;28;20029;-60
2021/06/05 12:18:25;;;;;;;31.67;3.28;;;20.90;77.50;;;;;;4994079;28;20021;-59
2021/06/05 12:20:58;;;;;;;44.28;5.78;;;20.90;77.70;;;;;;5000024;28;20466;-59
2021/06/05 12:23:33;;;;;;;23.20;2.17;;;20.80;77.80;;;;;;5015506;28;20786;-60
2021/06/05 12:26:20;;;;;;;12.60;1.85;;;20.70;78.00;;;;;;4993365;28;20261;-61
2021/06/05 12:28:47;;;;;;;10.23;1.45;;;20.70;78.30;;;;;;5002051;28;20068;-61
2021/06/05 12:31:17;;;;;;;13.23;1.95;;;20.70;78.50;;;;;;4998585;28;20467;-60
2021/06/05 12:33:42;;;;;;;20.15;2.50;;;20.60;78.50;;;;;;5017673;28;20026;-60
2021/06/05 12:36:23;;;;;;;25.48;2.50;;;20.60;78.90;;;;;;5014192;28;20099;-60
2021/06/05 12:38:50;;;;;;;30.75;3.25;;;20.60;79.40;;;;;;5022637;28;20046;-61
2021/06/05 12:41:25;;;;;;;22.13;2.60;;;20.60;79.60;;;;;;5009746;28;20112;-60
2021/06/05 12:43:50;;;;;;;19.80;2.55;;;20.60;79.60;;;;;;4999614;28;20030;-60
2021/06/05 12:46:35;;;;;;;37.22;3.45;;;20.70;79.80;;;;;;5018818;28;20440;-60
2021/06/05 12:49:03;;;;;;;35.92;3.67;;;20.70;80.10;;;;;;5038455;28;20033;-61